Time;durP1;ratioP1;P1;durP2;ratioP2;P2;SDS_P1;SDS_P2;PMS_P1;PMS_P2;Temp;Humidity;BMP_temperature;BMP_pressure;BME280_temperature;BME280_humidity;BME280_pressure;Samples;Min_cycle;Max_cycle;Signal;HPM_P1;HPM_P2
2021/03/02 00:00:32;;;;;;;;;;;21.00;30.50;;;;;;500277;237;1154;-72
2021/03/02 00:02:34;;;;;;;;;;;20.90;30.50;;;;;;500191;237;1096;-73
2021/03/02 00:04:35;;;;;;;;;;;20.90;30.60;;;;;;500264;237;2171;-73
2021/03/02 00:06:36;;;;;;;;;;;20.90;30.60;;;;;;500486;237;1067;-72
2021/03/02 00:08:37;;;;;;;;;;;20.90;30.60;;;;;;500352;237;945;-72
2021/03/02 00:10:42;;;;;;;;;;;20.90;30.70;;;;;;500344;237;1027;-73
2021/03/02 00:12:40;;;;;;;;;;;20.80;30.70;;;;;;500411;237;1403;-72
2021/03/02 00:14:42;;;;;;;;;;;20.80;30.70;;;;;;500340;237;1050;-72
2021/03/02 00:16:43;;;;;;;;;;;20.80;30.70;;;;;;500388;237;1198;-72
2021/03/02 00:18:44;;;;;;;;;;;20.80;30.80;;;;;;500351;237;1041;-73
2021/03/02 00:20:45;;;;;;;;;;;20.80;30.70;;;;;;500341;237;968;-73
2021/03/02 00:22:47;;;;;;;;;;;20.80;30.80;;;;;;500421;237;1051;-73
2021/03/02 00:24:48;;;;;;;;;;;20.80;30.80;;;;;;500413;237;2132;-73
2021/03/02 00:26:49;;;;;;;;;;;20.80;30.80;;;;;;500396;237;1165;-73
2021/03/02 00:28:50;;;;;;;;;;;20.80;30.80;;;;;;500358;237;947;-73
2021/03/02 00:30:52;;;;;;;;;;;20.80;30.80;;;;;;500364;237;1162;-73
2021/03/02 00:32:53;;;;;;;;;;;20.80;30.90;;;;;;500389;237;1091;-73
2021/03/02 00:34:54;;;;;;;;;;;20.80;30.90;;;;;;500422;237;938;-73
2021/03/02 00:36:56;;;;;;;;;;;20.80;30.90;;;;;;500284;237;1230;-72
2021/03/02 00:38:57;;;;;;;;;;;20.70;31.00;;;;;;500381;237;923;-73
2021/03/02 00:40:58;;;;;;;;;;;20.70;31.00;;;;;;500397;237;1095;-73
2021/03/02 00:42:59;;;;;;;;;;;20.60;31.00;;;;;;500392;237;1078;-73
2021/03/02 00:45:01;;;;;;;;;;;20.60;31.00;;;;;;500404;237;2124;-73
2021/03/02 00:47:02;;;;;;;;;;;20.60;31.00;;;;;;500352;237;1169;-73
2021/03/02 00:49:03;;;;;;;;;;;20.60;30.90;;;;;;500421;237;1214;-73
2021/03/02 00:51:04;;;;;;;;;;;20.70;31.00;;;;;;500490;237;1091;-73
2021/03/02 00:53:06;;;;;;;;;;;20.70;31.00;;;;;;500308;237;1137;-73
2021/03/02 00:55:07;;;;;;;;;;;20.70;31.00;;;;;;500353;237;1208;-73
2021/03/02 00:57:08;;;;;;;;;;;20.60;31.00;;;;;;500363;237;1033;-73
2021/03/02 00:59:10;;;;;;;;;;;20.60;31.00;;;;;;500401;237;1088;-73
2021/03/02 01:01:11;;;;;;;;;;;20.60;31.00;;;;;;500366;237;1154;-73
2021/03/02 01:03:12;;;;;;;;;;;20.60;31.10;;;;;;500414;237;1085;-73
2021/03/02 01:05:14;;;;;;;;;;;20.60;31.20;;;;;;500371;237;2180;-73
2021/03/02 01:07:15;;;;;;;;;;;20.60;31.20;;;;;;500333;237;1144;-73
2021/03/02 01:09:16;;;;;;;;;;;20.60;31.20;;;;;;500369;237;1086;-73
2021/03/02 01:11:17;;;;;;;;;;;20.60;31.10;;;;;;500391;237;1075;-73
2021/03/02 01:13:19;;;;;;;;;;;20.60;31.10;;;;;;500369;237;1017;-73
2021/03/02 01:15:20;;;;;;;;;;;20.60;31.00;;;;;;500421;237;1036;-73
2021/03/02 01:17:21;;;;;;;;;;;20.60;31.00;;;;;;500379;237;1270;-73
2021/03/02 01:19:22;;;;;;;;;;;20.60;31.00;;;;;;500403;237;1043;-73
2021/03/02 01:21:24;;;;;;;;;;;20.70;30.90;;;;;;500357;237;1214;-73
2021/03/02 01:23:25;;;;;;;;;;;20.60;30.90;;;;;;500330;237;1327;-72
2021/03/02 01:25:27;;;;;;;;;;;20.60;31.00;;;;;;500363;237;2187;-73
2021/03/02 01:27:28;;;;;;;;;;;20.60;31.10;;;;;;500406;237;1179;-73
2021/03/02 01:29:29;;;;;;;;;;;20.60;31.00;;;;;;500378;237;956;-72
2021/03/02 01:31:30;;;;;;;;;;;20.50;31.10;;;;;;500359;237;1252;-72
2021/03/02 01:33:32;;;;;;;;;;;20.60;31.10;;;;;;500391;237;1031;-73
2021/03/02 01:35:33;;;;;;;;;;;20.60;31.00;;;;;;500305;237;983;-73
2021/03/02 01:37:34;;;;;;;;;;;20.60;31.00;;;;;;500414;237;1196;-73
2021/03/02 01:39:36;;;;;;;;;;;20.50;31.10;;;;;;500384;237;939;-73
2021/03/02 01:41:37;;;;;;;;;;;20.60;31.00;;;;;;500343;237;1228;-73
2021/03/02 01:43:38;;;;;;;;;;;20.50;31.10;;;;;;500384;237;962;-73
2021/03/02 01:45:39;;;;;;;;;;;20.60;31.10;;;;;;500375;237;2176;-73
2021/03/02 01:47:41;;;;;;;;;;;20.60;31.10;;;;;;500386;237;1162;-73
2021/03/02 01:49:42;;;;;;;;;;;20.50;31.10;;;;;;500321;237;1018;-72
2021/03/02 01:51:43;;;;;;;;;;;20.50;31.00;;;;;;500309;237;1172;-72
2021/03/02 01:53:45;;;;;;;;;;;20.50;31.10;;;;;;500335;237;966;-72
2021/03/02 01:55:46;;;;;;;;;;;20.50;31.10;;;;;;500359;237;965;-73
2021/03/02 01:57:47;;;;;;;;;;;20.40;31.10;;;;;;500346;237;1181;-73
2021/03/02 01:59:48;;;;;;;;;;;20.40;31.10;;;;;;500304;237;967;-72
2021/03/02 02:01:50;;;;;;;;;;;20.40;31.20;;;;;;500313;237;1221;-73
2021/03/02 02:03:51;;;;;;;;;;;20.40;31.20;;;;;;500247;237;1073;-73
2021/03/02 02:05:53;;;;;;;;;;;20.40;31.30;;;;;;500236;237;2187;-73
2021/03/02 02:07:54;;;;;;;;;;;20.40;31.20;;;;;;500307;237;942;-73
2021/03/02 02:09:55;;;;;;;;;;;20.40;31.20;;;;;;500308;237;963;-73
2021/03/02 02:11:56;;;;;;;;;;;20.40;31.30;;;;;;500303;237;955;-73
2021/03/02 02:13:58;;;;;;;;;;;20.30;31.20;;;;;;500370;237;1014;-73
2021/03/02 02:15:59;;;;;;;;;;;20.30;31.20;;;;;;500340;237;925;-73
2021/03/02 02:18:00;;;;;;;;;;;20.30;31.20;;;;;;500443;237;1304;-73
2021/03/02 02:20:02;;;;;;;;;;;20.30;31.30;;;;;;500374;237;1140;-73
2021/03/02 02:22:03;;;;;;;;;;;20.30;31.30;;;;;;500377;237;950;-73
2021/03/02 02:24:04;;;;;;;;;;;20.30;31.30;;;;;;500317;237;1131;-72
2021/03/02 02:26:05;;;;;;;;;;;20.30;31.30;;;;;;500375;237;2183;-73
2021/03/02 02:28:07;;;;;;;;;;;20.20;31.30;;;;;;500399;237;1067;-73
2021/03/02 02:30:08;;;;;;;;;;;20.30;31.30;;;;;;500425;237;1020;-73
2021/03/02 02:32:09;;;;;;;;;;;20.20;31.30;;;;;;500383;237;1117;-73
2021/03/02 02:34:10;;;;;;;;;;;20.30;31.30;;;;;;500396;237;1096;-73
2021/03/02 02:36:12;;;;;;;;;;;20.20;31.30;;;;;;500365;237;933;-73
2021/03/02 02:38:13;;;;;;;;;;;20.20;31.30;;;;;;500389;237;1090;-73
2021/03/02 02:40:14;;;;;;;;;;;20.20;31.20;;;;;;500397;237;951;-72
2021/03/02 02:42:16;;;;;;;;;;;20.30;31.20;;;;;;500383;237;1066;-73
2021/03/02 02:44:17;;;;;;;;;;;20.20;31.20;;;;;;500400;237;967;-72
2021/03/02 02:46:18;;;;;;;;;;;20.20;31.10;;;;;;500318;237;2120;-73
2021/03/02 02:48:21;;;;;;;;;;;20.20;31.20;;;;;;500323;237;1203;-73
2021/03/02 02:50:22;;;;;;;;;;;20.10;31.20;;;;;;500324;237;1081;-72
2021/03/02 02:52:23;;;;;;;;;;;20.20;31.20;;;;;;500303;237;943;-73
2021/03/02 02:54:25;;;;;;;;;;;20.20;31.20;;;;;;500295;237;947;-72
2021/03/02 02:56:26;;;;;;;;;;;20.20;31.20;;;;;;500326;237;1023;-72
2021/03/02 02:58:28;;;;;;;;;;;20.20;31.20;;;;;;500371;237;969;-73
2021/03/02 03:00:29;;;;;;;;;;;20.20;31.10;;;;;;500356;237;1009;-72
2021/03/02 03:02:30;;;;;;;;;;;20.20;31.10;;;;;;500393;237;1137;-72
2021/03/02 03:04:32;;;;;;;;;;;20.10;31.20;;;;;;500392;237;1011;-72
2021/03/02 03:06:33;;;;;;;;;;;20.10;31.20;;;;;;500352;237;2148;-73
2021/03/02 03:08:34;;;;;;;;;;;20.10;31.20;;;;;;500499;237;1058;-73
2021/03/02 03:10:35;;;;;;;;;;;20.10;31.20;;;;;;500365;237;1050;-73
2021/03/02 03:12:37;;;;;;;;;;;20.10;31.10;;;;;;500390;237;1147;-73
2021/03/02 03:14:38;;;;;;;;;;;20.00;31.10;;;;;;500350;237;969;-72
2021/03/02 03:16:39;;;;;;;;;;;20.10;31.10;;;;;;500354;237;1182;-72
2021/03/02 03:18:40;;;;;;;;;;;20.00;31.10;;;;;;500350;237;1147;-73
2021/03/02 03:20:42;;;;;;;;;;;20.10;31.10;;;;;;500330;237;1033;-72
2021/03/02 03:22:43;;;;;;;;;;;20.00;31.10;;;;;;500308;237;1202;-73
2021/03/02 03:24:44;;;;;;;;;;;20.00;31.10;;;;;;500408;237;1083;-72
2021/03/02 03:26:45;;;;;;;;;;;20.00;31.00;;;;;;500335;237;2183;-72
2021/03/02 03:28:47;;;;;;;;;;;20.00;31.00;;;;;;500392;237;1268;-72
2021/03/02 03:30:48;;;;;;;;;;;20.00;31.00;;;;;;500357;237;1126;-72
2021/03/02 03:32:49;;;;;;;;;;;20.00;30.90;;;;;;500475;237;1175;-73
2021/03/02 03:34:51;;;;;;;;;;;19.90;30.80;;;;;;500395;237;973;-72
2021/03/02 03:36:52;;;;;;;;;;;20.00;30.90;;;;;;500393;237;1242;-72
2021/03/02 03:38:53;;;;;;;;;;;20.00;30.80;;;;;;500368;237;1349;-73
2021/03/02 03:40:54;;;;;;;;;;;20.00;30.80;;;;;;500353;237;962;-73
2021/03/02 03:42:56;;;;;;;;;;;19.90;30.70;;;;;;500452;237;1092;-73
2021/03/02 03:44:57;;;;;;;;;;;19.90;30.70;;;;;;500555;237;932;-72
2021/03/02 03:46:58;;;;;;;;;;;20.00;30.60;;;;;;500335;237;2187;-72
2021/03/02 03:48:59;;;;;;;;;;;20.00;30.60;;;;;;500418;237;1195;-72
2021/03/02 03:51:01;;;;;;;;;;;20.10;30.40;;;;;;500331;237;1044;-72
2021/03/02 03:53:02;;;;;;;;;;;20.10;30.40;;;;;;500390;237;950;-72
2021/03/02 03:55:03;;;;;;;;;;;20.10;30.30;;;;;;500357;237;932;-73
2021/03/02 03:57:05;;;;;;;;;;;20.10;30.40;;;;;;500350;237;965;-73
2021/03/02 03:59:06;;;;;;;;;;;20.10;30.30;;;;;;500445;237;1039;-73
2021/03/02 04:01:07;;;;;;;;;;;20.10;30.20;;;;;;500330;237;978;-73
2021/03/02 04:03:08;;;;;;;;;;;20.10;30.10;;;;;;500396;237;1209;-73
2021/03/02 04:05:10;;;;;;;;;;;20.10;30.20;;;;;;500316;237;1028;-73
2021/03/02 04:07:11;;;;;;;;;;;20.10;30.10;;;;;;500321;237;2124;-73
2021/03/02 04:09:12;;;;;;;;;;;20.10;30.10;;;;;;500308;237;958;-72
2021/03/02 04:11:14;;;;;;;;;;;20.10;30.10;;;;;;500232;237;969;-72
2021/03/02 04:13:15;;;;;;;;;;;20.10;30.10;;;;;;500390;237;934;-72
2021/03/02 04:15:16;;;;;;;;;;;20.00;30.20;;;;;;500420;237;954;-73
2021/03/02 04:17:17;;;;;;;;;;;20.00;30.20;;;;;;500294;237;1014;-73
2021/03/02 04:19:19;;;;;;;;;;;20.00;30.30;;;;;;500437;237;1193;-72
2021/03/02 04:21:20;;;;;;;;;;;20.00;30.20;;;;;;500366;237;959;-72
2021/03/02 04:23:21;;;;;;;;;;;20.00;30.20;;;;;;500357;237;934;-72
2021/03/02 04:25:22;;;;;;;;;;;20.00;30.40;;;;;;500338;237;929;-72
2021/03/02 04:27:24;;;;;;;;;;;20.00;30.40;;;;;;500397;237;2180;-72
2021/03/02 04:29:25;;;;;;;;;;;20.00;30.40;;;;;;500400;237;1237;-72
2021/03/02 04:31:26;;;;;;;;;;;20.00;30.40;;;;;;500369;237;1085;-73
2021/03/02 04:33:27;;;;;;;;;;;20.00;30.30;;;;;;500308;237;1313;-73
2021/03/02 04:35:29;;;;;;;;;;;20.00;30.30;;;;;;500331;237;1035;-73
2021/03/02 04:37:30;;;;;;;;;;;20.00;30.30;;;;;;500292;237;1098;-73
2021/03/02 04:39:32;;;;;;;;;;;20.00;30.20;;;;;;500363;237;994;-73
2021/03/02 04:41:33;;;;;;;;;;;20.00;30.30;;;;;;500183;237;1085;-72
2021/03/02 04:43:34;;;;;;;;;;;19.90;30.30;;;;;;500375;237;1066;-72
2021/03/02 04:45:35;;;;;;;;;;;19.90;30.30;;;;;;500385;237;947;-73
2021/03/02 04:47:37;;;;;;;;;;;19.90;30.30;;;;;;500342;237;2168;-73
2021/03/02 04:49:38;;;;;;;;;;;19.90;30.30;;;;;;500378;237;1183;-73
2021/03/02 04:51:39;;;;;;;;;;;19.90;30.30;;;;;;500342;237;979;-73
2021/03/02 04:53:41;;;;;;;;;;;19.90;30.30;;;;;;500315;237;988;-72
2021/03/02 04:55:42;;;;;;;;;;;19.80;30.30;;;;;;500336;237;1017;-72
2021/03/02 04:57:43;;;;;;;;;;;19.80;30.30;;;;;;500283;237;992;-73
2021/03/02 04:59:44;;;;;;;;;;;19.80;30.20;;;;;;500289;237;1062;-72
2021/03/02 05:01:46;;;;;;;;;;;19.80;30.20;;;;;;500190;237;1045;-72
2021/03/02 05:03:47;;;;;;;;;;;19.80;30.20;;;;;;500263;237;1311;-73
2021/03/02 05:05:48;;;;;;;;;;;19.80;30.20;;;;;;500231;237;942;-73
2021/03/02 05:07:49;;;;;;;;;;;19.80;30.20;;;;;;500180;237;2179;-73
2021/03/02 05:09:51;;;;;;;;;;;19.80;30.20;;;;;;500233;237;1218;-73
2021/03/02 05:11:52;;;;;;;;;;;19.80;30.20;;;;;;500234;237;1101;-73
2021/03/02 05:13:53;;;;;;;;;;;19.70;30.10;;;;;;500385;237;1096;-72
2021/03/02 05:15:55;;;;;;;;;;;19.70;30.20;;;;;;500315;237;974;-72
2021/03/02 05:17:56;;;;;;;;;;;19.80;30.10;;;;;;500304;237;1286;-73
2021/03/02 05:19:57;;;;;;;;;;;19.80;30.00;;;;;;500400;237;1268;-73
2021/03/02 05:21:58;;;;;;;;;;;19.80;30.00;;;;;;500264;237;1107;-73
2021/03/02 05:24:00;;;;;;;;;;;19.80;30.00;;;;;;500297;237;981;-73
2021/03/02 05:26:01;;;;;;;;;;;19.80;30.00;;;;;;500261;237;934;-73
2021/03/02 05:28:02;;;;;;;;;;;19.80;30.00;;;;;;500327;237;2129;-73
2021/03/02 05:30:04;;;;;;;;;;;19.80;29.90;;;;;;500303;237;959;-72
2021/03/02 05:32:05;;;;;;;;;;;19.80;29.90;;;;;;500132;237;1108;-72
2021/03/02 05:34:06;;;;;;;;;;;19.80;29.80;;;;;;500089;237;1133;-72
2021/03/02 05:36:07;;;;;;;;;;;19.80;29.90;;;;;;500104;237;1150;-72
2021/03/02 05:38:09;;;;;;;;;;;19.80;29.80;;;;;;500131;237;1116;-72
2021/03/02 05:40:10;;;;;;;;;;;19.80;29.90;;;;;;500243;237;970;-72
2021/03/02 05:42:11;;;;;;;;;;;19.80;29.90;;;;;;500133;237;1217;-72
2021/03/02 05:44:12;;;;;;;;;;;19.80;29.90;;;;;;500159;237;961;-72
2021/03/02 05:46:14;;;;;;;;;;;19.70;29.80;;;;;;500046;237;2112;-72
2021/03/02 05:48:15;;;;;;;;;;;19.80;29.80;;;;;;499779;237;1127;-73
2021/03/02 05:50:16;;;;;;;;;;;19.70;29.80;;;;;;499931;237;1177;-73
2021/03/02 05:52:18;;;;;;;;;;;19.70;29.80;;;;;;499996;237;1038;-73
2021/03/02 05:54:19;;;;;;;;;;;19.70;29.80;;;;;;500180;237;1064;-73
2021/03/02 05:56:20;;;;;;;;;;;19.70;29.90;;;;;;500108;237;940;-73
2021/03/02 05:58:21;;;;;;;;;;;19.60;29.90;;;;;;499991;237;1054;-73
2021/03/02 06:00:23;;;;;;;;;;;19.60;29.80;;;;;;500055;237;1199;-73
2021/03/02 06:02:24;;;;;;;;;;;19.60;29.80;;;;;;500004;237;1095;-73
2021/03/02 06:04:26;;;;;;;;;;;19.60;29.90;;;;;;500083;234;1284;-73
2021/03/02 06:06:26;;;;;;;;;;;19.60;29.80;;;;;;500100;237;2136;-72
2021/03/02 06:08:28;;;;;;;;;;;19.60;29.80;;;;;;500082;237;974;-72
2021/03/02 06:10:29;;;;;;;;;;;19.70;29.80;;;;;;500012;237;980;-72
2021/03/02 06:12:31;;;;;;;;;;;19.70;29.80;;;;;;500089;237;1093;-72
2021/03/02 06:14:34;;;;;;;;;;;19.60;29.80;;;;;;500074;237;1154;-72
2021/03/02 06:16:34;;;;;;;;;;;19.60;29.80;;;;;;500075;237;1334;-72
2021/03/02 06:18:35;;;;;;;;;;;19.50;29.80;;;;;;499874;237;1091;-72
2021/03/02 06:20:36;;;;;;;;;;;19.60;29.80;;;;;;499918;237;1210;-72
2021/03/02 06:22:38;;;;;;;;;;;19.60;29.80;;;;;;499887;237;1108;-72
2021/03/02 06:24:39;;;;;;;;;;;19.60;29.80;;;;;;499968;237;1371;-72
2021/03/02 06:26:40;;;;;;;;;;;19.50;29.90;;;;;;499995;237;2188;-72
2021/03/02 06:28:41;;;;;;;;;;;19.50;29.90;;;;;;499954;237;1101;-73
2021/03/02 06:30:42;;;;;;;;;;;19.50;29.80;;;;;;500000;237;1217;-73
2021/03/02 06:32:45;;;;;;;;;;;19.50;29.90;;;;;;499920;237;1069;-73
2021/03/02 06:34:45;;;;;;;;;;;19.50;29.90;;;;;;499925;237;1337;-73
2021/03/02 06:36:46;;;;;;;;;;;19.60;29.80;;;;;;499829;237;1287;-72
2021/03/02 06:38:48;;;;;;;;;;;19.60;29.80;;;;;;499799;237;968;-72
2021/03/02 06:40:49;;;;;;;;;;;19.60;29.80;;;;;;499815;237;1079;-72
2021/03/02 06:42:50;;;;;;;;;;;19.70;29.80;;;;;;499954;237;939;-72
2021/03/02 06:44:52;;;;;;;;;;;19.70;29.70;;;;;;499951;237;1130;-72
2021/03/02 06:46:53;;;;;;;;;;;19.60;29.70;;;;;;499973;237;2140;-72
2021/03/02 06:48:56;;;;;;;;;;;19.70;29.80;;;;;;499848;237;1050;-72
2021/03/02 06:50:55;;;;;;;;;;;19.70;29.70;;;;;;499993;237;1350;-73
2021/03/02 06:52:57;;;;;;;;;;;19.70;29.70;;;;;;499688;237;994;-73
2021/03/02 06:54:58;;;;;;;;;;;19.80;29.70;;;;;;499695;237;985;-73
2021/03/02 06:56:59;;;;;;;;;;;19.80;29.70;;;;;;499638;237;1015;-73
2021/03/02 06:59:01;;;;;;;;;;;19.90;29.70;;;;;;499614;237;1045;-72
2021/03/02 07:01:02;;;;;;;;;;;19.90;29.70;;;;;;499839;237;1017;-73
2021/03/02 07:03:03;;;;;;;;;;;19.90;29.60;;;;;;499831;237;1038;-73
2021/03/02 07:05:04;;;;;;;;;;;20.00;29.70;;;;;;499823;237;1316;-73
2021/03/02 07:07:14;;;;;;;;;;;20.00;29.70;;;;;;499865;237;2187;-73
2021/03/02 07:09:07;;;;;;;;;;;20.00;29.70;;;;;;499979;237;1312;-73
2021/03/02 07:11:08;;;;;;;;;;;19.90;29.80;;;;;;499765;237;1077;-73
2021/03/02 07:13:10;;;;;;;;;;;19.90;29.90;;;;;;499742;237;975;-73
2021/03/02 07:15:11;;;;;;;;;;;19.90;29.90;;;;;;499710;237;1401;-73
2021/03/02 07:17:12;;;;;;;;;;;19.90;29.90;;;;;;499567;237;1048;-73
2021/03/02 07:19:13;;;;;;;;;;;19.90;29.90;;;;;;499694;237;1127;-72
2021/03/02 07:21:15;;;;;;;;;;;19.90;30.00;;;;;;499798;237;1147;-72
2021/03/02 07:23:16;;;;;;;;;;;19.90;30.00;;;;;;499752;237;1015;-72
2021/03/02 07:25:17;;;;;;;;;;;19.90;30.10;;;;;;499618;237;1032;-72
2021/03/02 07:27:19;;;;;;;;;;;19.90;30.10;;;;;;499498;237;2175;-73
2021/03/02 07:29:20;;;;;;;;;;;19.80;30.20;;;;;;499520;237;1018;-72
2021/03/02 07:31:21;;;;;;;;;;;19.80;30.30;;;;;;499436;237;1341;-73
2021/03/02 07:33:22;;;;;;;;;;;19.80;30.40;;;;;;499508;237;1195;-72
2021/03/02 07:35:24;;;;;;;;;;;19.80;30.40;;;;;;499497;234;1252;-72
2021/03/02 07:37:25;;;;;;;;;;;19.80;30.40;;;;;;499545;237;1050;-72
2021/03/02 07:39:27;;;;;;;;;;;19.80;30.50;;;;;;499597;237;1138;-73
2021/03/02 07:41:27;;;;;;;;;;;19.80;30.50;;;;;;499464;237;1186;-73
2021/03/02 07:43:29;;;;;;;;;;;19.80;30.60;;;;;;499441;237;1024;-72
2021/03/02 07:45:30;;;;;;;;;;;19.70;30.60;;;;;;499484;237;1146;-72
2021/03/02 07:47:31;;;;;;;;;;;19.80;30.60;;;;;;499617;237;2184;-73
2021/03/02 07:49:33;;;;;;;;;;;19.80;30.60;;;;;;499680;237;1158;-73
2021/03/02 07:51:34;;;;;;;;;;;19.80;30.70;;;;;;499620;237;1204;-73
2021/03/02 07:53:35;;;;;;;;;;;19.90;30.60;;;;;;499596;237;975;-73
2021/03/02 07:55:36;;;;;;;;;;;19.80;30.70;;;;;;499690;237;1041;-73
2021/03/02 07:57:38;;;;;;;;;;;19.80;30.70;;;;;;499596;237;1109;-73
2021/03/02 07:59:39;;;;;;;;;;;19.80;30.70;;;;;;499540;237;958;-72
2021/03/02 08:01:40;;;;;;;;;;;19.80;30.90;;;;;;499396;237;1137;-72
2021/03/02 08:03:41;;;;;;;;;;;19.70;31.00;;;;;;499296;237;1177;-72
2021/03/02 08:05:43;;;;;;;;;;;19.70;31.00;;;;;;499550;237;1015;-72
2021/03/02 08:07:44;;;;;;;;;;;19.70;31.10;;;;;;499441;237;2171;-72
2021/03/02 08:09:45;;;;;;;;;;;19.70;31.20;;;;;;499507;237;997;-72
2021/03/02 08:11:47;;;;;;;;;;;19.70;31.20;;;;;;499501;237;1088;-73
2021/03/02 08:13:48;;;;;;;;;;;19.70;31.30;;;;;;499591;237;972;-73
2021/03/02 08:15:49;;;;;;;;;;;19.70;31.30;;;;;;499530;237;1015;-72
2021/03/02 08:17:51;;;;;;;;;;;19.70;31.40;;;;;;499473;237;1067;-72
2021/03/02 08:19:54;;;;;;;;;;;19.80;31.30;;;;;;499403;237;1115;-72
2021/03/02 08:21:53;;;;;;;;;;;19.80;31.40;;;;;;499607;237;1485;-72
2021/03/02 08:23:54;;;;;;;;;;;19.80;31.30;;;;;;499440;237;1160;-72
2021/03/02 08:25:56;;;;;;;;;;;19.90;31.20;;;;;;499326;237;1048;-72
2021/03/02 08:27:57;;;;;;;;;;;19.90;31.20;;;;;;499349;237;2171;-72
2021/03/02 08:29:58;;;;;;;;;;;19.90;31.20;;;;;;499470;237;1063;-73
2021/03/02 08:31:59;;;;;;;;;;;19.80;31.30;;;;;;499399;237;956;-72
2021/03/02 08:34:01;;;;;;;;;;;19.90;31.30;;;;;;499381;237;968;-73
2021/03/02 08:36:02;;;;;;;;;;;19.90;31.40;;;;;;499407;237;1202;-73
2021/03/02 08:38:03;;;;;;;;;;;20.00;31.40;;;;;;499531;237;1162;-72
2021/03/02 08:40:04;;;;;;;;;;;19.90;31.30;;;;;;499546;237;989;-72
2021/03/02 08:42:06;;;;;;;;;;;20.00;31.30;;;;;;499567;237;1112;-73
2021/03/02 08:44:07;;;;;;;;;;;20.10;31.20;;;;;;499276;237;1047;-73
2021/03/02 08:46:08;;;;;;;;;;;20.10;31.10;;;;;;499225;237;1063;-73
2021/03/02 08:48:10;;;;;;;;;;;20.10;31.10;;;;;;499381;237;2133;-72
2021/03/02 08:50:11;;;;;;;;;;;20.10;31.20;;;;;;499241;237;965;-73
2021/03/02 08:52:13;;;;;;;;;;;20.20;31.10;;;;;;499103;237;1158;-73
2021/03/02 08:54:14;;;;;;;;;;;20.30;31.10;;;;;;499431;237;1404;-73
2021/03/02 08:56:15;;;;;;;;;;;20.40;31.00;;;;;;499379;237;1094;-73
2021/03/02 08:58:16;;;;;;;;;;;20.40;31.00;;;;;;499406;237;980;-73
2021/03/02 09:00:17;;;;;;;;;;;20.50;30.90;;;;;;499330;237;1172;-73
2021/03/02 09:02:19;;;;;;;;;;;20.50;30.90;;;;;;499410;237;1062;-73
2021/03/02 09:04:20;;;;;;;;;;;20.60;30.80;;;;;;499182;237;1288;-73
2021/03/02 09:06:21;;;;;;;;;;;20.50;30.80;;;;;;499086;237;1461;-73
2021/03/02 09:08:23;;;;;;;;;;;20.60;30.80;;;;;;499370;237;2144;-73
2021/03/02 09:10:24;;;;;;;;;;;20.60;30.90;;;;;;499480;237;979;-73
2021/03/02 09:12:25;;;;;;;;;;;20.60;30.80;;;;;;499563;237;1042;-73
2021/03/02 09:14:26;;;;;;;;;;;20.60;30.80;;;;;;499350;237;1001;-73
2021/03/02 09:16:28;;;;;;;;;;;20.60;30.70;;;;;;499386;237;1040;-73
2021/03/02 09:18:29;;;;;;;;;;;20.70;30.80;;;;;;499297;237;1041;-73
2021/03/02 09:20:30;;;;;;;;;;;20.70;30.70;;;;;;499475;237;1231;-73
2021/03/02 09:22:32;;;;;;;;;;;20.70;30.70;;;;;;499123;237;1099;-73
2021/03/02 09:24:33;;;;;;;;;;;20.70;30.70;;;;;;499277;237;1255;-72
2021/03/02 09:26:34;;;;;;;;;;;20.70;30.70;;;;;;499303;237;1087;-73
2021/03/02 09:28:35;;;;;;;;;;;20.70;30.70;;;;;;499312;237;2171;-73
2021/03/02 09:30:37;;;;;;;;;;;20.80;30.60;;;;;;499311;237;1105;-73
2021/03/02 09:32:38;;;;;;;;;;;20.90;30.60;;;;;;499360;237;1202;-73
2021/03/02 09:34:39;;;;;;;;;;;20.80;30.60;;;;;;499238;237;1130;-73
2021/03/02 09:36:40;;;;;;;;;;;20.90;30.50;;;;;;499199;237;1091;-73
2021/03/02 09:38:42;;;;;;;;;;;20.90;30.50;;;;;;499393;237;1256;-73
2021/03/02 09:40:43;;;;;;;;;;;21.00;30.50;;;;;;499297;237;1114;-73
2021/03/02 09:42:45;;;;;;;;;;;21.00;30.40;;;;;;499432;237;1127;-73
2021/03/02 09:44:46;;;;;;;;;;;21.10;30.40;;;;;;499480;237;958;-73
2021/03/02 09:46:47;;;;;;;;;;;21.00;30.50;;;;;;499523;237;1334;-73
2021/03/02 09:48:49;;;;;;;;;;;21.00;30.50;;;;;;499414;237;2180;-73
2021/03/02 09:50:50;;;;;;;;;;;21.10;30.50;;;;;;499205;237;1036;-73
2021/03/02 09:52:51;;;;;;;;;;;21.10;30.40;;;;;;499442;237;1112;-73
2021/03/02 09:54:52;;;;;;;;;;;21.10;30.40;;;;;;499494;237;1112;-73
2021/03/02 09:56:54;;;;;;;;;;;21.10;30.30;;;;;;499530;237;1266;-73
2021/03/02 09:58:55;;;;;;;;;;;21.20;30.30;;;;;;499388;237;1082;-73
2021/03/02 10:00:59;;;;;;;;;;;21.20;30.30;;;;;;499253;237;1190;-73
2021/03/02 10:02:58;;;;;;;;;;;21.20;30.20;;;;;;499491;237;1386;-73
2021/03/02 10:05:00;;;;;;;;;;;21.30;30.30;;;;;;499330;237;1021;-73
2021/03/02 10:07:01;;;;;;;;;;;21.30;30.20;;;;;;499286;237;1499;-73
2021/03/02 10:09:03;;;;;;;;;;;21.30;30.20;;;;;;499552;237;2176;-73
2021/03/02 10:11:04;;;;;;;;;;;21.40;30.30;;;;;;499407;237;1177;-73
2021/03/02 10:13:05;;;;;;;;;;;21.40;30.20;;;;;;499553;237;1041;-73
2021/03/02 10:15:06;;;;;;;;;;;21.40;30.20;;;;;;499495;237;1057;-73
2021/03/02 10:17:08;;;;;;;;;;;21.50;30.10;;;;;;499635;237;1214;-73
2021/03/02 10:19:11;;;;;;;;;;;21.60;30.00;;;;;;499493;237;1107;-73
2021/03/02 10:21:10;;;;;;;;;;;21.60;30.00;;;;;;499336;237;1453;-73
2021/03/02 10:23:11;;;;;;;;;;;21.70;30.00;;;;;;499524;237;1114;-73
2021/03/02 10:25:13;;;;;;;;;;;21.80;30.00;;;;;;499542;237;1065;-73
2021/03/02 10:27:14;;;;;;;;;;;21.80;30.00;;;;;;500118;237;1112;-73
2021/03/02 10:29:15;;;;;;;;;;;21.90;29.90;;;;;;499285;237;2128;-73
2021/03/02 10:31:17;;;;;;;;;;;21.90;29.90;;;;;;499632;237;1422;-73
2021/03/02 10:33:18;;;;;;;;;;;21.90;29.90;;;;;;500361;237;990;-73
2021/03/02 10:35:19;;;;;;;;;;;22.00;30.00;;;;;;499354;237;1096;-73
2021/03/02 10:37:20;;;;;;;;;;;22.00;29.90;;;;;;499016;237;1037;-73
2021/03/02 10:39:22;;;;;;;;;;;22.10;29.90;;;;;;499324;237;1196;-73
2021/03/02 10:41:23;;;;;;;;;;;22.10;29.80;;;;;;499260;237;1023;-73
2021/03/02 10:43:24;;;;;;;;;;;22.20;29.90;;;;;;499343;237;1083;-73
2021/03/02 10:45:25;;;;;;;;;;;22.20;29.90;;;;;;499492;237;1273;-73
2021/03/02 10:47:27;;;;;;;;;;;22.10;29.80;;;;;;499408;237;1054;-73
2021/03/02 10:49:28;;;;;;;;;;;22.10;29.80;;;;;;499142;237;2186;-73
2021/03/02 10:51:29;;;;;;;;;;;22.10;29.90;;;;;;499193;237;1076;-73
2021/03/02 10:53:31;;;;;;;;;;;22.10;30.00;;;;;;499301;237;1133;-73
2021/03/02 10:55:32;;;;;;;;;;;21.90;30.00;;;;;;499299;237;1087;-73
2021/03/02 10:57:33;;;;;;;;;;;21.80;30.20;;;;;;499561;237;1166;-73
2021/03/02 10:59:34;;;;;;;;;;;21.60;30.40;;;;;;499622;237;1063;-73
2021/03/02 11:01:36;;;;;;;;;;;21.50;30.70;;;;;;499437;237;1172;-73
2021/03/02 11:03:37;;;;;;;;;;;21.30;30.80;;;;;;499226;237;1126;-73
2021/03/02 11:05:38;;;;;;;;;;;21.20;31.00;;;;;;499278;237;1073;-73
2021/03/02 11:07:39;;;;;;;;;;;21.10;31.10;;;;;;499248;238;1206;-73
2021/03/02 11:09:41;;;;;;;;;;;21.10;31.30;;;;;;499064;237;2161;-73
2021/03/02 11:11:42;;;;;;;;;;;21.00;31.40;;;;;;499151;237;1117;-73
2021/03/02 11:13:43;;;;;;;;;;;21.00;31.40;;;;;;499706;237;1122;-73
2021/03/02 11:15:45;;;;;;;;;;;21.00;31.50;;;;;;499430;237;1152;-73
2021/03/02 11:17:46;;;;;;;;;;;20.90;31.50;;;;;;499298;237;1121;-73
2021/03/02 11:19:47;;;;;;;;;;;21.00;31.60;;;;;;499286;237;1072;-73
2021/03/02 11:21:48;;;;;;;;;;;21.00;31.60;;;;;;499058;237;1124;-73
2021/03/02 11:23:50;;;;;;;;;;;20.90;31.60;;;;;;499183;234;1324;-73
2021/03/02 11:25:51;;;;;;;;;;;21.00;31.60;;;;;;499163;237;1084;-73
2021/03/02 11:27:54;;;;;;;;;;;21.00;31.50;;;;;;499415;237;1490;-73
2021/03/02 11:29:55;;;;;;;;;;;21.00;31.50;;;;;;499147;237;2175;-73
2021/03/02 11:31:57;;;;;;;;;;;21.00;31.50;;;;;;499031;237;1134;-73
2021/03/02 11:33:58;;;;;;;;;;;21.00;31.60;;;;;;499393;237;1070;-73
2021/03/02 11:35:59;;;;;;;;;;;21.00;31.60;;;;;;499356;237;1096;-73
2021/03/02 11:38:00;;;;;;;;;;;21.00;31.70;;;;;;499356;237;1053;-73
2021/03/02 11:40:02;;;;;;;;;;;21.00;31.80;;;;;;499331;237;1207;-73
2021/03/02 11:42:03;;;;;;;;;;;21.00;31.80;;;;;;499630;237;1069;-73
2021/03/02 11:44:04;;;;;;;;;;;21.00;31.80;;;;;;499333;237;1040;-73
2021/03/02 11:46:05;;;;;;;;;;;21.00;31.80;;;;;;499006;237;1551;-73
2021/03/02 11:48:07;;;;;;;;;;;21.00;31.80;;;;;;499507;237;1188;-73
2021/03/02 11:50:08;;;;;;;;;;;21.00;31.80;;;;;;499289;237;2187;-73
2021/03/02 11:52:10;;;;;;;;;;;21.00;31.90;;;;;;499434;237;1171;-73
2021/03/02 11:54:11;;;;;;;;;;;21.00;31.90;;;;;;499217;237;1218;-73
2021/03/02 11:56:12;;;;;;;;;;;21.00;32.00;;;;;;499278;237;1106;-73
2021/03/02 11:58:13;;;;;;;;;;;21.00;32.10;;;;;;499185;237;1064;-73